Thunderstorms From: 25-05-2018 15:00 Until: 26-05-2018 15:00 warning for: Thunderstorms Level: Yellow info button

Although rather usual in this region, locally or potentially dangerous phenomena are expected. (such as local winds, summer thunderstorms, rising streams or high waves) Be aware and pay attention to the latest weather updates, especially if you carry out activities exposed to weather or close to a stream or shoreline. 


Meteo18 Weather Cam more information Meteo18 Weather Cam


warning for Thunderstorms more information blitzortung!


Rain radar more information rain snow radar


Visit our other weather sites:

Template documentation
and downloads

And another site



Weather Underground History page Text

Daily Summary for March 31, 2016 Units:  Metric    English   Both
« Previous Day
Next Day »
Daily Weekly Monthly Yearly Custom
  High: Low: Average:
Temperature: -17.8 °C -14.9 °C -13.4 °C
Dew Point: -17.8 °C -15.6 °C -13.7 °C
Humidity: Humidity % 92 % 96 %
Wind Speed: 0 km/h 0 km/h 9.5 km/h
Wind Gust: 0 km/h - -
Wind:- - ENE
Pressure: 0 hPa 34029.3 hPa -
Precipitation: 200.66 mm    
Historical Graphs
 
 
Tabular Data for March 31, 2016
Time Temperature Dew Point Pressure Wind Wind Speed Wind Gust Humidity Rainfall Rate (Hourly)
-17.8 °C -17.8 °C 0 hPa Calm     Humidity % 0 mm
00:02 -11.8 °C -12.1 °C 34154.6 hPa Calm     97 % 0 mm
00:07 -11.8 °C -12.1 °C 34154.6 hPa Calm     97 % 0 mm
00:12 -11.7 °C -12 °C 34144.4 hPa Calm     97 % 0 mm
00:22 -11.8 °C -12.1 °C 34144.4 hPa Calm     96 % 0 mm
00:32 -11.8 °C -12.2 °C 34107.2 hPa Calm     96 % 0 mm
00:42 -12 °C -12.3 °C 34120.7 hPa Calm     96 % 0 mm
00:47 -12.1 °C -12.4 °C 34120.7 hPa Calm     96 % 0 mm
00:52 -12.2 °C -12.6 °C 34120.7 hPa Calm     96 % 0 mm
00:57 -12.3 °C -12.7 °C 34130.9 hPa Calm     96 % 0 mm
01:02 -12.4 °C -12.7 °C 34130.9 hPa Calm     96 % 0 mm
01:12 -12.5 °C -12.8 °C 34130.9 hPa Calm     96 % 0 mm
01:17 -12.6 °C -12.9 °C 34130.9 hPa Calm     96 % 0 mm
01:22 -12.6 °C -12.8 °C 34130.9 hPa Calm     97 % 0 mm
01:27 -12.4 °C -12.7 °C 34144.4 hPa Calm     97 % 0 mm
01:32 -12.4 °C -12.7 °C 34164.7 hPa Calm     97 % 0 mm
01:37 -12.2 °C -12.4 °C 34154.6 hPa Calm   7.7 km/h 98 % 12.7 mm
01:42 -12.1 °C -12.2 °C 34107.2 hPa Calm   7.7 km/h 98 % 12.7 mm
01:47 -12 °C -12.2 °C 34107.2 hPa SW 5.1 km/h 7.7 km/h 98 % 25.4 mm
01:52 -11.9 °C -12.1 °C 34107.2 hPa Calm   7.7 km/h 98 % 25.4 mm
01:57 -11.9 °C -12.2 °C 34107.2 hPa ENE 2.6 km/h 7.7 km/h 97 % 25.4 mm
02:02 -12 °C -12.3 °C 34107.2 hPa NE 2.6 km/h 7.7 km/h 97 % 25.4 mm
02:07 -12.1 °C -12.3 °C 34107.2 hPa Calm   10.3 km/h 97 % 25.4 mm
02:12 -12.2 °C -12.5 °C 34107.2 hPa Calm   10.3 km/h 96 % 25.4 mm
02:17 -12.3 °C -12.6 °C 34107.2 hPa Calm   10.3 km/h 97 % 25.4 mm
02:27 -12.4 °C -12.7 °C 34107.2 hPa Calm   2.6 km/h 97 % 25.4 mm
02:32 -12.4 °C -12.7 °C 34097 hPa Calm   2.6 km/h 97 % 25.4 mm
02:37 -12.5 °C -12.8 °C 34107.2 hPa Calm   2.6 km/h 97 % 12.7 mm
02:42 -12.4 °C -12.7 °C 34107.2 hPa Calm   2.6 km/h 97 % 12.7 mm
02:47 -12.6 °C -12.8 °C 34107.2 hPa Calm   2.6 km/h 97 % 0 mm
02:52 -12.6 °C -12.8 °C 34107.2 hPa Calm   2.6 km/h 97 % 0 mm
02:57 -12.6 °C -12.8 °C 34107.2 hPa Calm   2.6 km/h 97 % 0 mm
03:02 -12.6 °C -12.9 °C 34107.2 hPa Calm   2.6 km/h 97 % 0 mm
03:07 -12.6 °C -12.9 °C 34107.2 hPa Calm   2.6 km/h 97 % 0 mm
03:12 -12.7 °C -12.9 °C 34097 hPa Calm   2.6 km/h 97 % 0 mm
03:17 -12.7 °C -13 °C 34097 hPa Calm     97 % 0 mm
03:22 -12.7 °C -13 °C 34097 hPa Calm     97 % 0 mm
03:27 -12.7 °C -13 °C 34086.9 hPa Calm     97 % 0 mm
03:32 -12.7 °C -12.9 °C 34097 hPa Calm   5.1 km/h 97 % 0 mm
03:37 -12.7 °C -12.9 °C 34097 hPa Calm   5.1 km/h 97 % 0 mm
03:42 -12.7 °C -12.9 °C 34097 hPa Calm   5.1 km/h 97 % 0 mm
03:47 -12.7 °C -12.9 °C 34086.9 hPa Calm   2.6 km/h 97 % 0 mm
03:52 -12.7 °C -12.9 °C 34086.9 hPa Calm   2.6 km/h 97 % 0 mm
03:57 -12.7 °C -12.9 °C 34086.9 hPa Calm   2.6 km/h 97 % 0 mm
04:02 -12.7 °C -12.9 °C 34086.9 hPa ENE 5.1 km/h 5.1 km/h 97 % 0 mm
04:12 -12.7 °C -12.9 °C 34086.9 hPa Calm   5.1 km/h 97 % 0 mm
04:17 -12.7 °C -12.9 °C 34086.9 hPa Calm   5.1 km/h 97 % 0 mm
04:22 -12.7 °C -13 °C 34086.9 hPa Calm   5.1 km/h 97 % 0 mm
04:27 -12.7 °C -13 °C 34073.3 hPa Calm     97 % 0 mm
04:32 -12.7 °C -13 °C 34073.3 hPa Calm     97 % 0 mm
04:37 -12.7 °C -13 °C 34073.3 hPa Calm     97 % 0 mm
04:42 -12.7 °C -12.9 °C 34063.2 hPa Calm   2.6 km/h 98 % 0 mm
04:47 -12.7 °C -12.9 °C 34049.6 hPa Calm   5.1 km/h 98 % 0 mm
04:52 -12.7 °C -12.9 °C 34063.2 hPa NE 5.1 km/h 5.1 km/h 98 % 0 mm
05:02 -12.7 °C -12.8 °C 34073.3 hPa ENE 2.6 km/h 7.7 km/h 98 % 0 mm
05:12 -12.7 °C -12.9 °C 34073.3 hPa NNE 7.7 km/h 10.3 km/h 98 % 0 mm
05:17 -12.7 °C -12.9 °C 34073.3 hPa Calm   10.3 km/h 98 % 0 mm
05:22 -12.7 °C -12.9 °C 34073.3 hPa Calm   12.9 km/h 98 % 0 mm
05:32 -12.7 °C -12.9 °C 34086.9 hPa Calm   5.1 km/h 98 % 0 mm
05:37 -12.7 °C -12.9 °C 34073.3 hPa Calm   5.1 km/h 98 % 0 mm
05:42 -12.7 °C -12.9 °C 34073.3 hPa Calm   5.1 km/h 98 % 0 mm
05:52 -12.8 °C -12.9 °C 34073.3 hPa Calm   2.6 km/h 98 % 0 mm
05:57 -12.8 °C -13 °C 34073.3 hPa Calm   2.6 km/h 98 % 0 mm
06:02 -12.9 °C -13.2 °C 34063.2 hPa Calm   2.6 km/h 97 % 0 mm
06:07 -12.9 °C -13.1 °C 34063.2 hPa Calm   2.6 km/h 98 % 0 mm
06:12 -12.8 °C -13 °C 34063.2 hPa ENE 5.1 km/h 7.7 km/h 98 % 0 mm
06:17 -12.8 °C -13 °C 34063.2 hPa Calm   7.7 km/h 98 % 0 mm
06:22 -12.9 °C -13.1 °C 34049.6 hPa South 5.1 km/h 10.3 km/h 98 % 0 mm
06:27 -12.9 °C -13.1 °C 34049.6 hPa ESE 2.6 km/h 10.3 km/h 98 % 0 mm
06:32 -12.9 °C -13.1 °C 34049.6 hPa NNE 10.3 km/h 10.3 km/h 98 % 0 mm
06:37 -12.9 °C -13.1 °C 34039.5 hPa NE 7.7 km/h 18.2 km/h 98 % 7.62 mm
06:42 -12.9 °C -13.1 °C 34039.5 hPa ENE 5.1 km/h 18.2 km/h 98 % 7.62 mm
06:47 -12.9 °C -13.1 °C 34039.5 hPa SSE 7.7 km/h 18.2 km/h 98 % 7.62 mm
06:52 -12.9 °C -13.1 °C 34039.5 hPa North 2.6 km/h 18.2 km/h 98 % 7.62 mm
07:02 -13 °C -13.2 °C 34049.6 hPa Calm   18.2 km/h 98 % 7.62 mm
07:07 -13 °C -13.2 °C 34039.5 hPa ENE 5.1 km/h 18.2 km/h 98 % 7.62 mm
07:12 -12.9 °C -13.1 °C 34039.5 hPa NE 7.7 km/h 12.9 km/h 98 % 7.62 mm
07:17 -12.9 °C -13.1 °C 34039.5 hPa SSE 2.6 km/h 12.9 km/h 98 % 7.62 mm
07:22 -12.9 °C -13.1 °C 34039.5 hPa ENE 7.7 km/h 12.9 km/h 98 % 7.62 mm
07:27 -12.9 °C -13.1 °C 34049.6 hPa ENE 5.1 km/h 12.9 km/h 98 % 7.62 mm
07:32 -12.9 °C -13.1 °C 34049.6 hPa East 7.7 km/h 12.9 km/h 98 % 0 mm
07:37 -12.9 °C -13.1 °C 34063.2 hPa NE 7.7 km/h 12.9 km/h 98 % 0 mm
07:42 -12.9 °C -13.1 °C 34063.2 hPa East 5.1 km/h 12.9 km/h 98 % 0 mm
07:47 -12.9 °C -13.1 °C 34063.2 hPa NE 5.1 km/h 12.9 km/h 98 % 0 mm
07:52 -12.9 °C -13.1 °C 34063.2 hPa ENE 2.6 km/h 10.3 km/h 98 % 0 mm
07:57 -13 °C -13.2 °C 34063.2 hPa ENE 5.1 km/h 10.3 km/h 98 % 0 mm
08:02 -13.1 °C -13.2 °C 34049.6 hPa Calm   10.3 km/h 98 % 0 mm
08:12 -13.1 °C -13.2 °C 34063.2 hPa Calm   10.3 km/h 98 % 0 mm
08:17 -13 °C -13.2 °C 34049.6 hPa NE 10.3 km/h 10.3 km/h 98 % 0 mm
08:22 -13 °C -13.2 °C 34049.6 hPa ENE 2.6 km/h 10.3 km/h 98 % 0 mm
08:32 -12.9 °C -13.1 °C 34049.6 hPa NNE 12.9 km/h 12.9 km/h 98 % 0 mm
08:37 -12.9 °C -13.1 °C 34049.6 hPa NE 2.6 km/h 10.3 km/h 98 % 0 mm
08:42 -12.8 °C -13 °C 34049.6 hPa Calm   12.9 km/h 98 % 0 mm
08:47 -12.8 °C -13 °C 34049.6 hPa ENE 7.7 km/h 12.9 km/h 98 % 0 mm
08:52 -12.8 °C -13 °C 34049.6 hPa ESE 10.3 km/h 12.9 km/h 98 % 0 mm
09:02 -12.8 °C -12.9 °C 34049.6 hPa NE 15.6 km/h 18.2 km/h 98 % 0 mm
09:12 -12.8 °C -12.9 °C 34049.6 hPa NE 5.1 km/h 25.9 km/h 98 % 0 mm
09:17 -12.8 °C -13 °C 34063.2 hPa ENE 10.3 km/h 25.9 km/h 98 % 0 mm
09:22 -12.8 °C -13 °C 34063.2 hPa North 7.7 km/h 25.9 km/h 98 % 0 mm
09:27 -12.9 °C -13.1 °C 34049.6 hPa ENE 20.8 km/h 25.9 km/h 98 % 0 mm
09:32 -12.9 °C -13.1 °C 34049.6 hPa NE 10.3 km/h 31.1 km/h 98 % 0 mm
09:42 -12.9 °C -13.1 °C 34063.2 hPa ENE 10.3 km/h 28.5 km/h 98 % 0 mm
09:47 -12.9 °C -13.1 °C 34063.2 hPa ENE 12.9 km/h 28.5 km/h 98 % 0 mm
09:57 -12.9 °C -13.1 °C 34086.9 hPa NE 2.6 km/h 28.5 km/h 98 % 0 mm
10:02 -12.9 °C -13.1 °C 34073.3 hPa ENE 5.1 km/h 25.9 km/h 98 % 0 mm
10:12 -12.9 °C -13.1 °C 34097 hPa NE 2.6 km/h 23.3 km/h 98 % 0 mm
10:17 -12.9 °C -13.1 °C 34107.2 hPa Calm   23.3 km/h 98 % 0 mm
10:22 -12.9 °C -13.1 °C 34107.2 hPa Calm   23.3 km/h 98 % 0 mm
10:27 -12.9 °C -13.1 °C 34107.2 hPa NE 5.1 km/h 23.3 km/h 98 % 0 mm
10:32 -12.9 °C -13.1 °C 34097 hPa East 5.1 km/h 15.6 km/h 98 % 7.62 mm
10:37 -12.8 °C -13 °C 34097 hPa NE 10.3 km/h 15.6 km/h 98 % 7.62 mm
10:42 -12.8 °C -12.9 °C 34086.9 hPa East 10.3 km/h 18.2 km/h 98 % 7.62 mm
10:47 -12.7 °C -12.9 °C 34086.9 hPa NNE 18.2 km/h 18.2 km/h 98 % 7.62 mm
10:52 -12.7 °C -12.8 °C 34086.9 hPa NE 5.1 km/h 20.8 km/h 98 % 7.62 mm
10:57 -12.7 °C -12.8 °C 34086.9 hPa NE 20.8 km/h 20.8 km/h 98 % 7.62 mm
11:02 -12.7 °C -12.8 °C 34073.3 hPa ESE 12.9 km/h 23.3 km/h 98 % 7.62 mm
11:17 -12.7 °C -12.9 °C 34063.2 hPa East 12.9 km/h 28.5 km/h 97 % 7.62 mm
11:22 -12.7 °C -12.9 °C 34073.3 hPa SSE 18.2 km/h 28.5 km/h 97 % 7.62 mm
11:27 -12.7 °C -12.9 °C 34073.3 hPa ENE 5.1 km/h 28.5 km/h 97 % 7.62 mm
11:32 -12.7 °C -12.9 °C 34073.3 hPa NE 7.7 km/h 28.5 km/h 97 % 0 mm
11:37 -12.7 °C -12.9 °C 34063.2 hPa ENE 7.7 km/h 25.9 km/h 97 % 0 mm
11:42 -12.7 °C -12.9 °C 34063.2 hPa East 7.7 km/h 25.9 km/h 97 % 0 mm
11:47 -12.7 °C -12.9 °C 34063.2 hPa East 12.9 km/h 31.1 km/h 97 % 0 mm
11:52 -12.7 °C -12.9 °C 34063.2 hPa ENE 20.8 km/h 31.1 km/h 97 % 0 mm
11:57 -12.7 °C -13.1 °C 34049.6 hPa ENE 15.6 km/h 31.1 km/h 96 % 0 mm
12:02 -12.8 °C -13.2 °C 34049.6 hPa NE 7.7 km/h 31.1 km/h 96 % 0 mm
12:12 -12.9 °C -13.3 °C 34039.5 hPa East 10.3 km/h 31.1 km/h 96 % 0 mm
12:17 -13 °C -13.3 °C 34039.5 hPa NE 23.3 km/h 36.2 km/h 96 % 0 mm
12:22 -13.1 °C -13.4 °C 34039.5 hPa NE 25.9 km/h 36.2 km/h 96 % 0 mm
12:27 -13.1 °C -13.4 °C 34029.3 hPa East 15.6 km/h 36.2 km/h 96 % 0 mm
12:32 -13.1 °C -13.4 °C 34039.5 hPa East 10.3 km/h 36.2 km/h 96 % 0 mm
12:37 -13.1 °C -13.4 °C 34049.6 hPa NE 7.7 km/h 38.8 km/h 96 % 0 mm
12:42 -13.1 °C -13.4 °C 34049.6 hPa ESE 12.9 km/h 38.8 km/h 96 % 0 mm
12:52 -13.1 °C -13.4 °C 34049.6 hPa ENE 5.1 km/h 33.6 km/h 96 % 0 mm
12:57 -13.1 °C -13.4 °C 34049.6 hPa East 18.2 km/h 28.5 km/h 96 % 0 mm
13:02 -13.1 °C -13.4 °C 34049.6 hPa NNE 23.3 km/h 28.5 km/h 96 % 0 mm
13:12 -13.1 °C -13.4 °C 34063.2 hPa NE 23.3 km/h 28.5 km/h 96 % 0 mm
13:17 -13.1 °C -13.4 °C 34063.2 hPa NE 10.3 km/h 31.1 km/h 96 % 0 mm
13:22 -13 °C -13.3 °C 34063.2 hPa NNE 10.3 km/h 31.1 km/h 96 % 0 mm
13:32 -12.9 °C -13.3 °C 34063.2 hPa East 5.1 km/h 31.1 km/h 96 % 0 mm
13:37 -12.9 °C -13.3 °C 34063.2 hPa ESE 2.6 km/h 28.5 km/h 95 % 0 mm
13:42 -12.9 °C -13.4 °C 34063.2 hPa NE 20.8 km/h 28.5 km/h 95 % 0 mm
13:47 -12.9 °C -13.4 °C 34063.2 hPa ENE 18.2 km/h 36.2 km/h 95 % 0 mm
13:52 -12.9 °C -13.4 °C 34063.2 hPa East 7.7 km/h 38.8 km/h 95 % 0 mm
13:57 -12.9 °C -13.4 °C 34073.3 hPa ESE 10.3 km/h 38.8 km/h 94 % 0 mm
14:02 -13 °C -13.4 °C 34073.3 hPa NE 12.9 km/h 38.8 km/h 95 % 0 mm
14:07 -13.1 °C -13.5 °C 34073.3 hPa East 5.1 km/h 31.1 km/h 95 % 0 mm
14:12 -13.1 °C -13.6 °C 34073.3 hPa East 5.1 km/h 31.1 km/h 95 % 0 mm
14:17 -13.1 °C -13.6 °C 34073.3 hPa ENE 10.3 km/h 25.9 km/h 95 % 0 mm
14:22 -13.1 °C -13.6 °C 34073.3 hPa ESE 7.7 km/h 28.5 km/h 95 % 0 mm
14:32 -13.2 °C -13.7 °C 34086.9 hPa NE 12.9 km/h 31.1 km/h 95 % 0 mm
14:37 -13.2 °C -13.5 °C 34086.9 hPa East 7.7 km/h 31.1 km/h 96 % 0 mm
14:42 -13.2 °C -13.5 °C 34086.9 hPa NNE 12.9 km/h 31.1 km/h 96 % 0 mm
14:52 -13.2 °C -13.6 °C 34073.3 hPa SSE 5.1 km/h 28.5 km/h 95 % 0 mm
14:57 -13.2 °C -13.6 °C 34086.9 hPa East 12.9 km/h 28.5 km/h 95 % 0 mm
15:02 -13.2 °C -13.6 °C 34086.9 hPa East 15.6 km/h 28.5 km/h 95 % 0 mm
15:07 -13.2 °C -13.7 °C 34086.9 hPa ESE 10.3 km/h 28.5 km/h 95 % 0 mm
15:12 -13.3 °C -13.7 °C 34086.9 hPa NE 18.2 km/h 28.5 km/h 95 % 0 mm
15:17 -13.4 °C -13.8 °C 34073.3 hPa East 12.9 km/h 33.6 km/h 95 % 0 mm
15:22 -13.4 °C -13.9 °C 34086.9 hPa NE 15.6 km/h 33.6 km/h 95 % 0 mm
15:32 -13.6 °C -13.9 °C 34086.9 hPa ENE 18.2 km/h 33.6 km/h 95 % 0 mm
15:37 -13.6 °C -14 °C 34086.9 hPa NE 36.2 km/h 36.2 km/h 95 % 0 mm
15:42 -13.7 °C -14 °C 34086.9 hPa ENE 10.3 km/h 33.6 km/h 96 % 0 mm
15:47 -13.7 °C -14 °C 34086.9 hPa NNE 12.9 km/h 38.8 km/h 96 % 0 mm
15:52 -13.7 °C -14.1 °C 34086.9 hPa NNE 20.8 km/h 38.8 km/h 96 % 0 mm
15:57 -13.7 °C -14.1 °C 34086.9 hPa ENE 12.9 km/h 33.6 km/h 96 % 0 mm
16:02 -13.7 °C -14.1 °C 34086.9 hPa NE 18.2 km/h 33.6 km/h 96 % 0 mm
16:07 -13.7 °C -14.1 °C 34086.9 hPa North 15.6 km/h 38.8 km/h 96 % 0 mm
16:12 -13.8 °C -14.1 °C 34086.9 hPa East 7.7 km/h 38.8 km/h 96 % 0 mm
16:17 -13.8 °C -14.1 °C 34086.9 hPa East 18.2 km/h 38.8 km/h 96 % 0 mm
16:22 -13.8 °C -14.1 °C 34086.9 hPa ENE 20.8 km/h 31.1 km/h 96 % 0 mm
16:27 -13.8 °C -14.1 °C 34086.9 hPa NNE 15.6 km/h 33.6 km/h 96 % 0 mm
16:32 -13.8 °C -14.2 °C 34086.9 hPa NE 23.3 km/h 33.6 km/h 96 % 0 mm
16:37 -13.9 °C -14.2 °C 34086.9 hPa NE 15.6 km/h 36.2 km/h 96 % 0 mm
16:42 -13.8 °C -14.2 °C 34086.9 hPa ENE 5.1 km/h 36.2 km/h 96 % 0 mm
16:47 -13.9 °C -14.2 °C 34097 hPa NE 18.2 km/h 36.2 km/h 96 % 0 mm
16:57 -13.9 °C -14.3 °C 34097 hPa NNE 7.7 km/h 36.2 km/h 95 % 0 mm
17:02 -13.9 °C -14.3 °C 34097 hPa ENE 20.8 km/h 36.2 km/h 95 % 0 mm
17:07 -13.9 °C -14.3 °C 34097 hPa ENE 7.7 km/h 33.6 km/h 95 % 0 mm
17:12 -13.9 °C -14.3 °C 34107.2 hPa ENE 25.9 km/h 33.6 km/h 95 % 0 mm
17:17 -14 °C -14.4 °C 34107.2 hPa ENE 25.9 km/h 33.6 km/h 95 % 7.62 mm
17:22 -14 °C -14.4 °C 34097 hPa NE 36.2 km/h 36.2 km/h 95 % 12.7 mm
17:27 -14 °C -14.4 °C 34097 hPa NE 10.3 km/h 36.2 km/h 95 % 12.7 mm
17:32 -14 °C -14.4 °C 34097 hPa NNE 23.3 km/h 36.2 km/h 95 % 12.7 mm
17:37 -14.1 °C -14.4 °C 34097 hPa NNE 20.8 km/h 36.2 km/h 95 % 12.7 mm
17:42 -14.1 °C -14.4 °C 34097 hPa NE 12.9 km/h 36.2 km/h 95 % 12.7 mm
17:47 -14.1 °C -14.4 °C 34107.2 hPa NE 7.7 km/h 31.1 km/h 95 % 12.7 mm
17:52 -14.1 °C -14.5 °C 34107.2 hPa East 10.3 km/h 36.2 km/h 95 % 12.7 mm
17:57 -14.1 °C -14.5 °C 34107.2 hPa ENE 10.3 km/h 36.2 km/h 95 % 20.32 mm
18:02 -14.1 °C -14.6 °C 34097 hPa ENE 23.3 km/h 36.2 km/h 94 % 20.32 mm
18:07 -14.2 °C -14.7 °C 34086.9 hPa ENE 20.8 km/h 31.1 km/h 94 % 25.4 mm
18:17 -14.2 °C -14.7 °C 34063.2 hPa NE 23.3 km/h 36.2 km/h 94 % 25.4 mm
18:22 -14.3 °C -14.8 °C 34073.3 hPa ENE 12.9 km/h 36.2 km/h 94 % 25.4 mm
18:27 -14.3 °C -14.8 °C 34097 hPa SE 15.6 km/h 46.7 km/h 94 % 20.32 mm
18:32 -14.3 °C -14.8 °C 34097 hPa NE 15.6 km/h 46.7 km/h 94 % 20.32 mm
18:42 -14.3 °C -14.8 °C 34130.9 hPa NE 12.9 km/h 36.2 km/h 94 % 25.4 mm
18:47 -14.3 °C -14.7 °C 34144.4 hPa NE 18.2 km/h 31.1 km/h 95 % 38.1 mm
18:57 -14.3 °C -14.7 °C 34144.4 hPa NNE 10.3 km/h 31.1 km/h 95 % 45.72 mm
19:02 -14.3 °C -14.7 °C 34144.4 hPa NE 10.3 km/h 31.1 km/h 95 % 45.72 mm
19:12 -14.3 °C -14.7 °C 34144.4 hPa ENE 23.3 km/h 25.9 km/h 95 % 63.5 mm
19:17 -14.3 °C -14.7 °C 34144.4 hPa East 10.3 km/h 25.9 km/h 95 % 83.82 mm
19:22 -14.3 °C -14.7 °C 34144.4 hPa NE 10.3 km/h 25.9 km/h 95 % 96.52 mm
19:32 -14.3 °C -14.7 °C 34144.4 hPa East 10.3 km/h 25.9 km/h 95 % 109.22 mm
19:37 -14.3 °C -14.7 °C 34130.9 hPa NE 23.3 km/h 31.1 km/h 95 % 109.22 mm
19:47 -14.3 °C -14.7 °C 34130.9 hPa ENE 18.2 km/h 31.1 km/h 95 % 109.22 mm
19:52 -14.4 °C -14.8 °C 34144.4 hPa NE 20.8 km/h 31.1 km/h 95 % 109.22 mm
19:57 -14.4 °C -14.8 °C 34144.4 hPa ESE 15.6 km/h 36.2 km/h 95 % 96.52 mm
20:02 -14.4 °C -14.8 °C 34144.4 hPa ENE 15.6 km/h 36.2 km/h 95 % 83.82 mm
20:07 -14.4 °C -14.9 °C 34164.7 hPa NE 12.9 km/h 36.2 km/h 94 % 63.5 mm
20:12 -14.4 °C -14.9 °C 34164.7 hPa NNE 23.3 km/h 36.2 km/h 94 % 63.5 mm
20:17 -14.5 °C -15 °C 34178.3 hPa NNE 12.9 km/h 38.8 km/h 94 % 45.72 mm
20:22 -14.5 °C -15 °C 34188.4 hPa NE 12.9 km/h 38.8 km/h 94 % 38.1 mm
20:32 -14.6 °C -15.1 °C 34198.6 hPa East 12.9 km/h 33.6 km/h 94 % 25.4 mm
20:42 -14.7 °C -15.2 °C 34198.6 hPa NE 5.1 km/h 31.1 km/h 94 % 12.7 mm
20:47 -14.7 °C -15.2 °C 34198.6 hPa NE 18.2 km/h 33.6 km/h 94 % 7.62 mm
20:52 -14.7 °C -15.2 °C 34198.6 hPa NE 12.9 km/h 33.6 km/h 94 % 7.62 mm
20:57 -14.7 °C -15.2 °C 34212.1 hPa ENE 23.3 km/h 36.2 km/h 94 % 0 mm
21:02 -14.8 °C -15.3 °C 34198.6 hPa NE 15.6 km/h 36.2 km/h 94 % 0 mm
21:07 -14.8 °C -15.3 °C 34198.6 hPa ESE 15.6 km/h 41.4 km/h 94 % 0 mm
21:12 -14.8 °C -15.3 °C 34198.6 hPa NE 5.1 km/h 41.4 km/h 94 % 0 mm
21:17 -14.8 °C -15.3 °C 34198.6 hPa ENE 28.5 km/h 41.4 km/h 94 % 0 mm
21:22 -14.9 °C -15.4 °C 34198.6 hPa ESE 7.7 km/h 36.2 km/h 94 % 0 mm
21:27 -14.9 °C -15.4 °C 34198.6 hPa East 31.1 km/h 44.1 km/h 94 % 0 mm
21:32 -14.9 °C -15.4 °C 34198.6 hPa ENE 25.9 km/h 44.1 km/h 94 % 0 mm
21:37 -14.9 °C -15.4 °C 34212.1 hPa East 15.6 km/h 44.1 km/h 94 % 0 mm
21:42 -14.9 °C -15.4 °C 34222.3 hPa ENE 18.2 km/h 44.1 km/h 94 % 0 mm
21:47 -14.9 °C -15.4 °C 34222.3 hPa East 10.3 km/h 36.2 km/h 94 % 0 mm
21:52 -14.9 °C -15.4 °C 34235.8 hPa ENE 18.2 km/h 36.2 km/h 94 % 0 mm
21:57 -14.9 °C -15.4 °C 34235.8 hPa NE 15.6 km/h 33.6 km/h 94 % 0 mm
22:02 -14.9 °C -15.4 °C 34235.8 hPa NE 15.6 km/h 38.8 km/h 94 % 0 mm
22:07 -14.9 °C -15.4 °C 34246 hPa NE 7.7 km/h 38.8 km/h 94 % 0 mm
22:12 -14.9 °C -15.4 °C 34246 hPa East 12.9 km/h 38.8 km/h 94 % 0 mm
22:17 -14.9 °C -15.4 °C 34256.2 hPa ESE 18.2 km/h 25.9 km/h 94 % 0 mm
22:22 -14.9 °C -15.4 °C 34256.2 hPa NE 18.2 km/h 25.9 km/h 94 % 0 mm
22:27 -14.9 °C -15.5 °C 34256.2 hPa NE 20.8 km/h 25.9 km/h 93 % 0 mm
22:32 -14.9 °C -15.5 °C 34269.7 hPa NE 25.9 km/h 25.9 km/h 93 % 0 mm
22:37 -14.9 °C -15.5 °C 34269.7 hPa NE 7.7 km/h 28.5 km/h 93 % 0 mm
22:42 -14.9 °C -15.5 °C 34256.2 hPa East 28.5 km/h 28.5 km/h 93 % 0 mm
22:47 -14.9 °C -15.6 °C 34256.2 hPa NNE 18.2 km/h 44.1 km/h 92 % 7.62 mm
22:52 -14.9 °C -15.5 °C 34256.2 hPa NE 25.9 km/h 44.1 km/h 93 % 7.62 mm
22:57 -14.9 °C -15.6 °C 34256.2 hPa NE 15.6 km/h 44.1 km/h 92 % 7.62 mm
23:12 -14.9 °C -15.5 °C 34293.4 hPa NNE 12.9 km/h 33.6 km/h 93 % 7.62 mm
23:17 -14.9 °C -15.5 °C 34293.4 hPa North 18.2 km/h 33.6 km/h 93 % 7.62 mm
23:22 -14.9 °C -15.4 °C 34303.6 hPa ENE 5.1 km/h 33.6 km/h 93 % 7.62 mm
23:32 -14.9 °C -15.4 °C 34303.6 hPa East 2.6 km/h 28.5 km/h 93 % 7.62 mm
23:37 -14.9 °C -15.4 °C 34313.7 hPa ESE 7.7 km/h 23.3 km/h 93 % 0 mm
23:42 -14.9 °C -15.4 °C 34313.7 hPa ENE 7.7 km/h 23.3 km/h 93 % 0 mm
23:47 -14.8 °C -15.5 °C 34313.7 hPa NE 10.3 km/h 25.9 km/h 92 % 0 mm
23:52 -14.8 °C -15.5 °C 34313.7 hPa NE 12.9 km/h 25.9 km/h 92 % 0 mm
23:57 -14.8 °C -15.4 °C 34313.7 hPa ENE 15.6 km/h 28.5 km/h 93 % 0 mm
Meteo18
Compliments of Weather Underground - 4 mb

Script developed by  Jim McMurry - jmcmurry@mwt.net Adapted for the template by  Wim van der Kuil - Leuven-Template.eu

You find our weather info also at:

European Weather Network

Weather Underground

Equipment we use:

Weather-station
Davis Vue

Weather-program
Meteobridge

Weather-server
Raspberry PI 2 B+

Provider
1 and 1

Davis Vue

Meteobridge

Raspberry PI 2 B+

1 and 1